createdAt,value
2023-01-28T00:00:02.026Z,-0.94
2023-01-28T00:02:31.078Z,-0.65
2023-01-28T00:04:59.288Z,-0.94
2023-01-28T00:07:28.937Z,-0.52
2023-01-28T00:09:57.153Z,-0.64
2023-01-28T00:12:25.252Z,-0.89
2023-01-28T00:14:55.824Z,-1.12
2023-01-28T00:17:24.016Z,-0.75
2023-01-28T00:19:54.968Z,-0.55
2023-01-28T00:22:23.335Z,-1.65
2023-01-28T00:24:55.892Z,-0.65
2023-01-28T00:27:26.666Z,-0.43
2023-01-28T00:29:55.556Z,-0.49
2023-01-28T00:32:25.508Z,-1.30
2023-01-28T00:34:53.668Z,-1.17
2023-01-28T00:37:21.792Z,-0.40
2023-01-28T00:39:52.604Z,-1.11
2023-01-28T00:42:20.810Z,-0.39
2023-01-28T00:44:51.307Z,-0.41
2023-01-28T00:47:19.603Z,-0.38
2023-01-28T00:49:47.747Z,-0.38
2023-01-28T00:52:15.877Z,-0.46
2023-01-28T00:54:44.079Z,-0.35
2023-01-28T00:57:15.929Z,-0.26
2023-01-28T00:59:44.827Z,-0.23
2023-01-28T01:02:18.156Z,-0.67
2023-01-28T01:05:02.098Z,-0.42
2023-01-28T01:07:41.755Z,-0.44
2023-01-28T01:10:13.205Z,-0.45
2023-01-28T01:12:45.863Z,-0.52
2023-01-28T01:15:14.236Z,-0.35
2023-01-28T01:17:44.062Z,-0.36
2023-01-28T01:20:15.994Z,-0.81
2023-01-28T01:22:44.255Z,-0.34
2023-01-28T01:25:15.213Z,-0.33
2023-01-28T01:27:48.854Z,-0.25
2023-01-28T01:30:18.237Z,-0.28
2023-01-28T01:32:46.557Z,-0.29
2023-01-28T01:35:15.115Z,-1.36
2023-01-28T01:37:48.354Z,-0.37
2023-01-28T01:40:16.508Z,-0.22
2023-01-28T01:42:46.090Z,-0.24
2023-01-28T01:45:17.711Z,-0.24
2023-01-28T01:47:49.656Z,-0.25
2023-01-28T01:50:24.871Z,-0.67
2023-01-28T01:52:56.401Z,-0.18
2023-01-28T01:55:28.841Z,-0.19
2023-01-28T01:58:04.137Z,-0.57
2023-01-28T02:00:32.492Z,-0.17
2023-01-28T02:03:01.193Z,-1.05
2023-01-28T02:05:29.548Z,-0.90
2023-01-28T02:08:21.113Z,-0.20
2023-01-28T02:10:51.976Z,-0.23
2023-01-28T02:13:24.392Z,-1.28
2023-01-28T02:15:55.332Z,-0.30
2023-01-28T02:18:23.441Z,-0.15
2023-01-28T02:21:19.670Z,-0.15
2023-01-28T02:24:02.575Z,-0.16
2023-01-28T02:27:05.553Z,-0.16
2023-01-28T02:29:40.666Z,-0.04
2023-01-28T02:32:15.885Z,-0.39
2023-01-28T02:34:48.568Z,-0.18
2023-01-28T02:37:22.257Z,-0.77
2023-01-28T02:39:53.165Z,-0.25
2023-01-28T02:42:26.875Z,-0.20
2023-01-28T02:44:56.613Z,-0.47
2023-01-28T02:47:42.598Z,-0.88
2023-01-28T02:50:14.601Z,-0.20
2023-01-28T02:53:20.445Z,-0.69
2023-01-28T02:55:57.946Z,-0.20
2023-01-28T02:58:43.983Z,-0.13
2023-01-28T03:01:23.473Z,-0.26
2023-01-28T03:03:59.426Z,-0.40
2023-01-28T03:06:35.990Z,-0.42
2023-01-28T03:09:27.186Z,-0.39
2023-01-28T03:12:20.185Z,-0.38
2023-01-28T03:15:09.904Z,-0.36
2023-01-28T03:18:01.358Z,-0.33
2023-01-28T03:20:54.285Z,-0.35
2023-01-28T03:23:46.477Z,-0.96
2023-01-28T03:26:34.227Z,-0.31
2023-01-28T03:29:27.399Z,-0.72
2023-01-28T03:32:14.864Z,-0.20
2023-01-28T03:35:02.911Z,-0.13
2023-01-28T03:37:32.156Z,-0.13
2023-01-28T03:40:05.077Z,-0.27
2023-01-28T03:42:33.775Z,-0.16
2023-01-28T03:45:04.979Z,-0.32
2023-01-28T03:47:36.637Z,-0.33
2023-01-28T03:50:08.823Z,-0.30
2023-01-28T03:52:37.004Z,-0.23
2023-01-28T03:55:13.955Z,-0.17
2023-01-28T03:57:44.954Z,-0.24
2023-01-28T04:00:14.504Z,-0.23
2023-01-28T04:02:42.809Z,-0.35
2023-01-28T04:05:16.136Z,-0.26
2023-01-28T04:07:44.663Z,-0.20
2023-01-28T04:10:13.444Z,-0.07
2023-01-28T04:12:41.679Z,-0.15
2023-01-28T04:15:17.707Z,-0.24
2023-01-28T04:17:46.770Z,-0.23
2023-01-28T04:20:16.923Z,-0.71
2023-01-28T04:22:45.170Z,-0.62
2023-01-28T04:25:13.785Z,-0.18
2023-01-28T04:27:42.103Z,-0.28
2023-01-28T04:30:11.478Z,-1.18
2023-01-28T04:32:42.408Z,-0.30
2023-01-28T04:35:13.911Z,-0.41
2023-01-28T04:37:44.115Z,-0.22
2023-01-28T04:40:13.794Z,-0.22
2023-01-28T04:42:44.355Z,-0.42
2023-01-28T04:45:13.173Z,-0.41
2023-01-28T04:47:41.634Z,-0.24
2023-01-28T04:50:10.885Z,-0.52
2023-01-28T04:52:39.100Z,-0.23
2023-01-28T04:55:10.415Z,-0.33
2023-01-28T04:57:40.626Z,-0.50
2023-01-28T05:00:10.210Z,-0.30
2023-01-28T05:02:40.662Z,-0.25
2023-01-28T05:05:09.910Z,-0.14
2023-01-28T05:07:38.486Z,-0.17
2023-01-28T05:10:09.488Z,-1.13
2023-01-28T05:12:37.741Z,-0.21
2023-01-28T05:15:06.985Z,-0.19
2023-01-28T05:17:35.155Z,-0.13
2023-01-28T05:20:03.694Z,-0.16
2023-01-28T05:22:31.849Z,-0.46
2023-01-28T05:25:02.565Z,-0.53
2023-01-28T05:27:32.820Z,-0.47
2023-01-28T05:30:03.050Z,-0.31
2023-01-28T05:32:31.267Z,-1.12
2023-01-28T05:34:59.424Z,-0.37
2023-01-28T05:37:27.594Z,-0.30
2023-01-28T05:39:58.245Z,-0.29
2023-01-28T05:42:29.402Z,-0.38
2023-01-28T05:44:58.960Z,-0.33
2023-01-28T05:47:27.149Z,-0.37
2023-01-28T05:49:55.291Z,-0.21
2023-01-28T05:52:23.454Z,-0.23
2023-01-28T05:54:51.700Z,-0.28
2023-01-28T05:57:25.623Z,-0.32
2023-01-28T05:59:53.863Z,-0.31
2023-01-28T06:02:23.491Z,-0.41
2023-01-28T06:04:51.616Z,-0.44
2023-01-28T06:07:20.468Z,-0.37
2023-01-28T06:09:48.925Z,-0.47
2023-01-28T06:12:17.110Z,-0.65
2023-01-28T06:14:45.262Z,-0.48
2023-01-28T06:17:13.409Z,-0.60
2023-01-28T06:19:43.105Z,-1.18
2023-01-28T06:22:11.487Z,-0.72
2023-01-28T06:24:39.622Z,-1.43
2023-01-28T06:27:07.757Z,-0.41
2023-01-28T06:29:35.904Z,-0.75
2023-01-28T06:32:04.271Z,-0.51
2023-01-28T06:34:32.714Z,-1.06
2023-01-28T06:37:05.498Z,-0.41
2023-01-28T06:39:33.710Z,-0.68
2023-01-28T06:42:01.892Z,-0.36
2023-01-28T06:44:30.083Z,-0.33
2023-01-28T06:46:58.335Z,-0.33
2023-01-28T06:49:31.577Z,-0.32
2023-01-28T06:52:01.164Z,-0.28
2023-01-28T06:54:29.327Z,-0.29
2023-01-28T06:56:57.409Z,-0.35
2023-01-28T06:59:31.579Z,-0.28
2023-01-28T07:01:59.717Z,0.01
2023-01-28T07:04:28.022Z,0.06
2023-01-28T07:06:56.185Z,-0.26
2023-01-28T07:09:25.762Z,-0.23
2023-01-28T07:11:54.045Z,-0.21
2023-01-28T07:17:04.233Z,-0.06
2023-01-28T07:19:32.491Z,-0.08
2023-01-28T07:22:03.175Z,-0.03
2023-01-28T07:24:33.222Z,-0.22
2023-01-28T07:27:04.124Z,0.10
2023-01-28T07:29:32.363Z,0.13
2023-01-28T07:32:00.644Z,0.18
2023-01-28T07:34:28.877Z,0.21
2023-01-28T07:36:57.546Z,0.30
2023-01-28T07:39:25.838Z,0.34
2023-01-28T07:41:55.495Z,0.45
2023-01-28T07:44:23.887Z,0.54
2023-01-28T07:46:52.271Z,0.56
2023-01-28T07:49:20.476Z,0.64
2023-01-28T07:51:50.604Z,0.45
2023-01-28T07:54:21.732Z,0.70
2023-01-28T07:56:49.927Z,0.41
2023-01-28T07:59:22.175Z,0.65
2023-01-28T08:01:50.495Z,0.72
2023-01-28T08:04:18.887Z,0.65
2023-01-28T08:06:47.075Z,0.23
2023-01-28T08:09:15.312Z,0.87
2023-01-28T08:11:43.969Z,0.81
2023-01-28T08:14:12.478Z,0.65
2023-01-28T08:16:42.142Z,0.87
2023-01-28T08:19:10.702Z,0.92
2023-01-28T08:21:38.984Z,0.34
2023-01-28T08:24:08.088Z,0.84
2023-01-28T08:26:37.326Z,0.75
2023-01-28T08:29:05.798Z,0.69
2023-01-28T08:31:34.014Z,0.45
2023-01-28T08:34:03.726Z,0.47
2023-01-28T08:36:32.135Z,0.69
2023-01-28T08:39:02.519Z,0.74
2023-01-28T08:41:31.497Z,0.51
2023-01-28T08:44:00.514Z,0.38
2023-01-28T08:46:28.724Z,0.69
2023-01-28T08:48:58.886Z,0.90
2023-01-28T08:51:28.454Z,0.30
2023-01-28T08:53:56.716Z,0.94
2023-01-28T08:56:24.905Z,0.58
2023-01-28T08:58:55.374Z,0.84
2023-01-28T09:01:23.609Z,0.76
2023-01-28T09:03:52.086Z,0.40
2023-01-28T09:06:22.635Z,0.07
2023-01-28T09:08:52.332Z,0.93
2023-01-28T09:11:20.524Z,0.83
2023-01-28T09:13:48.719Z,0.88
2023-01-28T09:16:16.952Z,0.64
2023-01-28T09:18:45.225Z,0.33
2023-01-28T09:21:13.406Z,-0.11
2023-01-28T09:23:41.611Z,0.65
2023-01-28T09:26:11.336Z,0.69
2023-01-28T09:28:42.811Z,0.89
2023-01-28T09:31:13.320Z,0.88
2023-01-28T09:33:42.247Z,0.83
2023-01-28T09:36:12.192Z,1.11
2023-01-28T09:38:40.333Z,0.63
2023-01-28T09:41:28.130Z,1.18
2023-01-28T09:44:21.993Z,1.08
2023-01-28T09:46:50.368Z,1.05
2023-01-28T09:49:25.373Z,0.96
2023-01-28T09:51:56.803Z,1.00
2023-01-28T09:54:37.756Z,1.25
2023-01-28T09:57:13.819Z,1.21
2023-01-28T09:59:46.788Z,1.20
2023-01-28T10:02:31.571Z,1.16
2023-01-28T10:05:04.979Z,1.23
2023-01-28T10:07:44.117Z,0.81
2023-01-28T10:10:17.711Z,1.04
2023-01-28T10:13:11.784Z,1.23
2023-01-28T10:16:15.032Z,1.18
2023-01-28T10:18:50.472Z,-1.42
2023-01-28T10:21:24.463Z,0.34
2023-01-28T10:23:59.956Z,1.00
2023-01-28T10:26:36.981Z,0.94
2023-01-28T10:29:16.394Z,0.79
2023-01-28T10:32:01.085Z,0.66
2023-01-28T10:34:29.368Z,0.63
2023-01-28T10:36:59.382Z,0.68
2023-01-28T10:39:29.703Z,0.80
2023-01-28T10:42:00.277Z,0.85
2023-01-28T10:44:36.800Z,0.85
2023-01-28T10:47:12.540Z,0.89
2023-01-28T10:49:45.461Z,0.80
2023-01-28T10:52:14.756Z,0.79
2023-01-28T10:54:43.228Z,1.04
2023-01-28T10:57:14.611Z,1.07
2023-01-28T10:59:44.836Z,1.09
2023-01-28T11:02:29.520Z,1.08
2023-01-28T11:05:06.738Z,1.15
2023-01-28T11:07:35.467Z,0.29
2023-01-28T11:10:03.853Z,0.58
2023-01-28T11:12:32.479Z,1.17
2023-01-28T11:15:04.381Z,1.19
2023-01-28T11:17:35.991Z,1.30
2023-01-28T11:20:18.736Z,1.27
2023-01-28T11:22:48.434Z,1.29
2023-01-28T11:25:23.626Z,1.31
2023-01-28T11:27:53.749Z,1.25
2023-01-28T11:30:26.886Z,1.34
2023-01-28T11:32:58.008Z,1.42
2023-01-28T11:35:28.946Z,1.50
2023-01-28T11:38:00.393Z,1.58
2023-01-28T11:40:31.220Z,1.49
2023-01-28T11:43:00.516Z,1.65
2023-01-28T11:45:43.554Z,1.68
2023-01-28T11:48:25.351Z,1.70
2023-01-28T11:50:58.448Z,1.79
2023-01-28T11:53:58.141Z,1.83
2023-01-28T11:56:44.480Z,-0.62
2023-01-28T11:59:38.181Z,1.90
2023-01-28T12:02:25.185Z,1.64
2023-01-28T12:05:17.780Z,1.82
2023-01-28T12:07:53.960Z,1.85
2023-01-28T12:10:30.956Z,1.87
2023-01-28T12:13:12.026Z,1.92
2023-01-28T12:16:00.458Z,1.67
2023-01-28T12:18:50.114Z,1.45
2023-01-28T12:21:31.168Z,1.59
2023-01-28T12:24:15.914Z,1.56
2023-01-28T12:26:52.377Z,1.70
2023-01-28T12:29:28.779Z,1.28
2023-01-28T12:32:15.784Z,1.74
2023-01-28T12:34:57.237Z,1.50
2023-01-28T12:37:39.008Z,1.54
2023-01-28T12:40:38.885Z,0.99
2023-01-28T12:43:18.252Z,1.67
2023-01-28T12:45:49.650Z,1.54
2023-01-28T12:48:26.707Z,1.68
2023-01-28T12:51:03.564Z,1.75
2023-01-28T12:53:42.113Z,1.73
2023-01-28T12:56:18.519Z,1.68
2023-01-28T12:58:52.750Z,1.77
2023-01-28T13:01:27.159Z,1.76
2023-01-28T13:04:04.780Z,1.85
2023-01-28T13:06:41.848Z,1.08
2023-01-28T13:09:18.152Z,1.82
2023-01-28T13:11:51.893Z,1.65
2023-01-28T13:14:24.299Z,0.57
2023-01-28T13:16:54.886Z,1.19
2023-01-28T13:19:26.247Z,1.86
2023-01-28T13:21:55.869Z,1.70
2023-01-28T13:24:35.582Z,1.76
2023-01-28T13:27:18.941Z,1.75
2023-01-28T13:29:52.140Z,1.83
2023-01-28T13:32:31.130Z,1.78
2023-01-28T13:35:01.970Z,1.74
2023-01-28T13:37:34.960Z,1.77
2023-01-28T13:40:13.136Z,1.62
2023-01-28T13:42:44.606Z,1.19
2023-01-28T13:45:26.776Z,1.12
2023-01-28T13:48:01.533Z,1.29
2023-01-28T13:50:39.297Z,1.36
2023-01-28T13:53:25.059Z,1.43
2023-01-28T13:55:56.749Z,1.51
2023-01-28T13:58:54.911Z,1.51
2023-01-28T14:01:45.637Z,1.46
2023-01-28T14:04:55.656Z,1.57
2023-01-28T14:07:51.517Z,1.45
2023-01-28T14:10:41.037Z,1.48
2023-01-28T14:13:54.954Z,1.61
2023-01-28T14:16:53.159Z,1.57
2023-01-28T14:19:26.793Z,1.44
2023-01-28T14:21:58.735Z,1.43
2023-01-28T14:24:32.114Z,1.51
2023-01-28T14:27:11.185Z,1.58
2023-01-28T14:29:50.721Z,1.55
2023-01-28T14:32:23.201Z,1.45
2023-01-28T14:34:51.695Z,1.34
2023-01-28T14:37:24.722Z,1.53
2023-01-28T14:39:58.784Z,1.63
2023-01-28T14:42:35.125Z,1.55
2023-01-28T14:45:17.338Z,1.58
2023-01-28T14:48:16.383Z,1.53
2023-01-28T14:51:04.095Z,1.61
2023-01-28T14:54:05.585Z,1.63
2023-01-28T14:56:45.812Z,1.68
2023-01-28T14:59:25.379Z,1.71
2023-01-28T15:01:59.363Z,1.38
2023-01-28T15:04:33.146Z,1.05
2023-01-28T15:07:16.814Z,1.42
2023-01-28T15:09:47.283Z,1.69
2023-01-28T15:12:18.223Z,1.65
2023-01-28T15:14:48.990Z,1.57
2023-01-28T15:17:26.653Z,1.55
2023-01-28T15:19:57.735Z,1.44
2023-01-28T15:22:29.218Z,1.43
2023-01-28T15:24:57.709Z,1.40
2023-01-28T15:27:30.648Z,1.44
2023-01-28T15:30:02.565Z,1.30
2023-01-28T15:32:32.950Z,1.41
2023-01-28T15:35:02.365Z,1.08
2023-01-28T15:37:30.659Z,1.23
2023-01-28T15:40:05.360Z,1.17
2023-01-28T15:42:37.552Z,1.25
2023-01-28T15:45:18.089Z,0.98
2023-01-28T15:47:47.177Z,1.14
2023-01-28T15:50:20.434Z,1.05
2023-01-28T15:52:51.958Z,1.07
2023-01-28T15:55:33.623Z,1.07
2023-01-28T15:58:17.139Z,1.07
2023-01-28T16:00:49.467Z,1.05
2023-01-28T16:03:23.585Z,1.04
2023-01-28T16:06:06.768Z,0.94
2023-01-28T16:08:40.598Z,0.60
2023-01-28T16:11:09.801Z,0.81
2023-01-28T16:13:46.687Z,0.90
2023-01-28T16:16:16.450Z,0.91
2023-01-28T16:18:49.292Z,0.99
2023-01-28T16:21:24.024Z,0.14
2023-01-28T16:23:54.250Z,0.39
2023-01-28T16:26:27.315Z,0.76
2023-01-28T16:28:55.688Z,0.78
2023-01-28T16:31:27.440Z,0.77
2023-01-28T16:33:57.517Z,0.69
2023-01-28T16:36:25.847Z,0.77
2023-01-28T16:38:53.990Z,0.78
2023-01-28T16:41:27.100Z,0.80
2023-01-28T16:43:55.422Z,0.30
2023-01-28T16:46:23.806Z,0.74
2023-01-28T16:48:53.572Z,0.04
2023-01-28T16:51:21.874Z,0.49
2023-01-28T16:53:51.226Z,0.76
2023-01-28T16:59:11.853Z,0.81
2023-01-28T17:01:40.124Z,0.71
2023-01-28T17:04:12.790Z,0.68
2023-01-28T17:06:43.996Z,0.71
2023-01-28T17:09:13.023Z,0.65
2023-01-28T17:11:41.312Z,0.64
2023-01-28T17:14:09.639Z,0.64
2023-01-28T17:16:38.055Z,0.68
2023-01-28T17:19:06.447Z,0.39
2023-01-28T17:21:36.062Z,0.70
2023-01-28T17:24:04.593Z,0.68
2023-01-28T17:26:36.751Z,0.71
2023-01-28T17:29:08.524Z,0.66
2023-01-28T17:31:37.466Z,0.36
2023-01-28T17:34:07.236Z,0.56
2023-01-28T17:36:37.013Z,0.63
2023-01-28T17:39:06.996Z,0.69
2023-01-28T17:41:35.488Z,0.33
2023-01-28T17:44:04.688Z,0.47
2023-01-28T17:46:32.987Z,0.74
2023-01-28T17:49:10.523Z,0.72
2023-01-28T17:51:40.214Z,0.58
2023-01-28T17:54:14.280Z,-1.44
2023-01-28T17:56:42.657Z,0.69
2023-01-28T17:59:15.725Z,0.19
2023-01-28T18:01:47.360Z,0.22
2023-01-28T18:04:21.488Z,0.73
2023-01-28T18:06:54.581Z,0.72
2023-01-28T18:09:22.942Z,0.58
2023-01-28T18:11:51.153Z,0.55
2023-01-28T18:14:19.414Z,-0.09
2023-01-28T18:16:50.274Z,0.77
2023-01-28T18:19:18.484Z,0.76
2023-01-28T18:21:53.039Z,0.66
2023-01-28T18:24:25.854Z,0.65
2023-01-28T18:26:55.668Z,0.59
2023-01-28T18:29:24.339Z,0.64
2023-01-28T18:31:54.422Z,0.52
2023-01-28T18:34:24.450Z,0.59
2023-01-28T18:36:53.023Z,0.59
2023-01-28T18:39:25.282Z,0.64
2023-01-28T18:42:02.559Z,0.66
2023-01-28T18:44:32.100Z,0.68
2023-01-28T18:47:02.211Z,0.69
2023-01-28T18:49:30.525Z,-0.24
2023-01-28T18:51:59.590Z,0.58
2023-01-28T18:54:29.254Z,0.70
2023-01-28T18:56:59.753Z,0.19
2023-01-28T18:59:28.268Z,0.57
2023-01-28T19:01:56.507Z,0.66
2023-01-28T19:04:24.684Z,0.68
2023-01-28T19:06:59.369Z,0.70
2023-01-28T19:09:29.113Z,0.64
2023-01-28T19:12:00.292Z,0.65
2023-01-28T19:14:28.456Z,0.64
2023-01-28T19:16:56.665Z,0.53
2023-01-28T19:19:24.914Z,-0.26
2023-01-28T19:21:53.235Z,0.42
2023-01-28T19:24:21.727Z,0.52
2023-01-28T19:26:51.363Z,0.39
2023-01-28T19:29:19.689Z,0.38
2023-01-28T19:31:49.508Z,0.50
2023-01-28T19:34:18.100Z,0.52
2023-01-28T19:36:47.721Z,0.58
2023-01-28T19:39:17.781Z,0.62
2023-01-28T19:41:47.561Z,0.67
2023-01-28T19:44:17.383Z,0.71
2023-01-28T19:46:46.532Z,0.66
2023-01-28T19:49:16.126Z,0.70
2023-01-28T19:51:49.959Z,0.54
2023-01-28T19:54:26.867Z,0.68
2023-01-28T19:56:55.389Z,0.60
2023-01-28T19:59:30.415Z,0.35
2023-01-28T20:02:01.643Z,0.57
2023-01-28T20:04:34.560Z,0.09
2023-01-28T20:07:11.592Z,0.41
2023-01-28T20:09:41.964Z,0.10
2023-01-28T20:12:15.245Z,0.36
2023-01-28T20:14:45.185Z,0.34
2023-01-28T20:17:15.117Z,0.17
2023-01-28T20:19:46.726Z,-0.30
2023-01-28T20:22:17.744Z,0.30
2023-01-28T20:24:46.323Z,0.49
2023-01-28T20:27:18.753Z,0.35
2023-01-28T20:29:50.262Z,0.45
2023-01-28T20:32:20.740Z,0.09
2023-01-28T20:34:49.713Z,0.30
2023-01-28T20:37:18.550Z,0.49
2023-01-28T20:39:47.107Z,0.37
2023-01-28T20:42:22.869Z,0.49
2023-01-28T20:44:54.992Z,0.50
2023-01-28T20:47:25.458Z,0.53
2023-01-28T20:49:55.586Z,0.52
2023-01-28T20:52:26.309Z,0.55
2023-01-28T20:54:54.576Z,0.42
2023-01-28T20:57:22.986Z,0.35
2023-01-28T20:59:52.672Z,0.46
2023-01-28T21:02:21.717Z,0.60
2023-01-28T21:04:49.924Z,0.58
2023-01-28T21:07:18.558Z,0.49
2023-01-28T21:09:49.365Z,0.60
2023-01-28T21:12:18.042Z,0.59
2023-01-28T21:14:47.068Z,0.45
2023-01-28T21:17:17.360Z,0.62
2023-01-28T21:19:46.259Z,0.60
2023-01-28T21:22:15.370Z,0.62
2023-01-28T21:24:46.605Z,0.55
2023-01-28T21:27:15.264Z,0.58
2023-01-28T21:29:45.823Z,0.49
2023-01-28T21:32:14.005Z,0.63
2023-01-28T21:34:43.703Z,0.64
2023-01-28T21:37:11.922Z,0.45
2023-01-28T21:39:40.134Z,0.69
2023-01-28T21:42:08.305Z,0.72
2023-01-28T21:44:36.520Z,0.71
2023-01-28T21:47:04.961Z,0.39
2023-01-28T21:49:33.294Z,0.64
2023-01-28T21:52:02.920Z,0.59
2023-01-28T21:54:31.137Z,0.13
2023-01-28T21:56:59.392Z,0.83
2023-01-28T21:59:30.771Z,0.71
2023-01-28T22:02:00.493Z,0.67
2023-01-28T22:04:30.814Z,0.64
2023-01-28T22:06:59.436Z,0.71
2023-01-28T22:09:31.298Z,0.41
2023-01-28T22:11:59.779Z,0.13
2023-01-28T22:14:27.988Z,0.66
2023-01-28T22:16:56.245Z,0.68
2023-01-28T22:19:24.396Z,0.41
2023-01-28T22:21:52.658Z,0.62
2023-01-28T22:24:24.559Z,0.52
2023-01-28T22:26:55.280Z,0.40
2023-01-28T22:29:24.937Z,0.20
2023-01-28T22:31:54.822Z,0.21
2023-01-28T22:34:23.527Z,0.55
2023-01-28T22:36:52.512Z,0.61
2023-01-28T22:39:21.061Z,0.50
2023-01-28T22:41:49.304Z,0.39
2023-01-28T22:44:20.111Z,0.59
2023-01-28T22:46:48.641Z,0.71
2023-01-28T22:49:17.063Z,0.40
2023-01-28T22:51:45.285Z,0.52
2023-01-28T22:54:15.027Z,0.52
2023-01-28T22:56:43.342Z,0.60
2023-01-28T22:59:12.522Z,0.66
2023-01-28T23:01:42.656Z,0.64
2023-01-28T23:04:10.821Z,0.56
2023-01-28T23:06:39.029Z,0.49
2023-01-28T23:09:07.312Z,0.63
2023-01-28T23:11:35.864Z,0.50
2023-01-28T23:14:22.855Z,0.62
2023-01-28T23:17:09.808Z,0.27
2023-01-28T23:19:55.618Z,0.37
2023-01-28T23:22:43.664Z,0.36
2023-01-28T23:25:12.090Z,0.34
2023-01-28T23:27:40.428Z,0.34
2023-01-28T23:30:10.577Z,-0.45
2023-01-28T23:32:43.936Z,0.05
2023-01-28T23:35:13.258Z,0.40
2023-01-28T23:37:42.022Z,0.47
2023-01-28T23:40:11.253Z,0.42
2023-01-28T23:42:39.469Z,0.50
2023-01-28T23:45:08.721Z,0.45
2023-01-28T23:47:37.105Z,0.35
2023-01-28T23:50:07.439Z,0.38
2023-01-28T23:52:35.580Z,0.37
2023-01-28T23:55:05.702Z,0.40
2023-01-28T23:57:33.894Z,0.43
